sensor_id;sensor_type;location;lat;lon;timestamp;P1;durP1;ratioP1;P2;durP2;ratioP2
8572;SDS011;4324;42.012;24.872;2022-10-31T00:01:36;4.07;;;2.83;;
8572;SDS011;4324;42.012;24.872;2022-10-31T00:04:05;3.23;;;2.37;;
8572;SDS011;4324;42.012;24.872;2022-10-31T00:06:32;2.63;;;2.43;;
8572;SDS011;4324;42.012;24.872;2022-10-31T00:09:00;4.10;;;2.90;;
8572;SDS011;4324;42.012;24.872;2022-10-31T00:11:29;3.23;;;2.50;;
8572;SDS011;4324;42.012;24.872;2022-10-31T00:13:56;4.13;;;3.13;;
8572;SDS011;4324;42.012;24.872;2022-10-31T00:16:25;4.43;;;2.87;;
8572;SDS011;4324;42.012;24.872;2022-10-31T00:18:53;3.13;;;2.57;;
8572;SDS011;4324;42.012;24.872;2022-10-31T00:21:21;4.53;;;2.63;;
8572;SDS011;4324;42.012;24.872;2022-10-31T00:23:49;4.63;;;2.90;;
8572;SDS011;4324;42.012;24.872;2022-10-31T00:26:16;4.87;;;2.63;;
8572;SDS011;4324;42.012;24.872;2022-10-31T00:28:43;5.57;;;3.00;;
8572;SDS011;4324;42.012;24.872;2022-10-31T00:31:10;5.30;;;2.97;;
8572;SDS011;4324;42.012;24.872;2022-10-31T00:33:39;4.13;;;2.70;;
8572;SDS011;4324;42.012;24.872;2022-10-31T00:36:09;3.27;;;2.90;;
8572;SDS011;4324;42.012;24.872;2022-10-31T00:38:37;4.57;;;2.80;;
8572;SDS011;4324;42.012;24.872;2022-10-31T00:41:04;3.40;;;2.60;;
8572;SDS011;4324;42.012;24.872;2022-10-31T00:43:31;3.70;;;2.70;;
8572;SDS011;4324;42.012;24.872;2022-10-31T00:45:58;3.97;;;2.87;;
8572;SDS011;4324;42.012;24.872;2022-10-31T00:48:25;4.90;;;2.43;;
8572;SDS011;4324;42.012;24.872;2022-10-31T00:50:53;4.80;;;3.03;;
8572;SDS011;4324;42.012;24.872;2022-10-31T00:53:20;7.67;;;3.00;;
8572;SDS011;4324;42.012;24.872;2022-10-31T00:55:47;6.07;;;3.10;;
8572;SDS011;4324;42.012;24.872;2022-10-31T00:58:14;3.87;;;2.70;;
8572;SDS011;4324;42.012;24.872;2022-10-31T01:00:41;5.73;;;2.43;;
8572;SDS011;4324;42.012;24.872;2022-10-31T01:03:08;3.73;;;2.60;;
8572;SDS011;4324;42.012;24.872;2022-10-31T01:05:35;2.73;;;2.40;;
8572;SDS011;4324;42.012;24.872;2022-10-31T01:08:04;4.70;;;2.90;;
8572;SDS011;4324;42.012;24.872;2022-10-31T01:10:31;5.40;;;3.27;;
8572;SDS011;4324;42.012;24.872;2022-10-31T01:12:57;3.00;;;2.60;;
8572;SDS011;4324;42.012;24.872;2022-10-31T01:15:24;4.70;;;2.93;;
8572;SDS011;4324;42.012;24.872;2022-10-31T01:17:51;4.80;;;2.50;;
8572;SDS011;4324;42.012;24.872;2022-10-31T01:20:18;3.93;;;2.50;;
8572;SDS011;4324;42.012;24.872;2022-10-31T01:22:45;3.10;;;2.57;;
8572;SDS011;4324;42.012;24.872;2022-10-31T01:25:14;3.57;;;2.50;;
8572;SDS011;4324;42.012;24.872;2022-10-31T01:27:40;6.00;;;2.80;;
8572;SDS011;4324;42.012;24.872;2022-10-31T01:30:08;4.80;;;2.80;;
8572;SDS011;4324;42.012;24.872;2022-10-31T01:32:35;3.17;;;2.40;;
8572;SDS011;4324;42.012;24.872;2022-10-31T01:35:02;6.40;;;3.13;;
8572;SDS011;4324;42.012;24.872;2022-10-31T01:37:30;3.80;;;2.80;;
8572;SDS011;4324;42.012;24.872;2022-10-31T01:39:57;5.07;;;2.50;;
8572;SDS011;4324;42.012;24.872;2022-10-31T01:42:25;4.90;;;2.70;;
8572;SDS011;4324;42.012;24.872;2022-10-31T01:44:54;3.73;;;2.60;;
8572;SDS011;4324;42.012;24.872;2022-10-31T01:47:26;3.97;;;2.30;;
8572;SDS011;4324;42.012;24.872;2022-10-31T01:50:12;6.10;;;3.47;;
8572;SDS011;4324;42.012;24.872;2022-10-31T01:52:47;5.13;;;2.93;;
8572;SDS011;4324;42.012;24.872;2022-10-31T01:55:17;3.70;;;2.57;;
8572;SDS011;4324;42.012;24.872;2022-10-31T01:57:49;4.77;;;2.90;;
8572;SDS011;4324;42.012;24.872;2022-10-31T02:00:19;4.00;;;2.70;;
8572;SDS011;4324;42.012;24.872;2022-10-31T02:02:46;4.50;;;2.60;;
8572;SDS011;4324;42.012;24.872;2022-10-31T02:05:17;3.40;;;2.70;;
8572;SDS011;4324;42.012;24.872;2022-10-31T02:07:48;5.03;;;2.23;;
8572;SDS011;4324;42.012;24.872;2022-10-31T02:10:19;5.40;;;2.70;;
8572;SDS011;4324;42.012;24.872;2022-10-31T02:12:49;4.27;;;2.97;;
8572;SDS011;4324;42.012;24.872;2022-10-31T02:15:18;3.27;;;2.50;;
8572;SDS011;4324;42.012;24.872;2022-10-31T02:17:45;4.20;;;2.60;;
8572;SDS011;4324;42.012;24.872;2022-10-31T02:20:14;5.97;;;2.93;;
8572;SDS011;4324;42.012;24.872;2022-10-31T02:22:49;4.10;;;2.70;;
8572;SDS011;4324;42.012;24.872;2022-10-31T02:25:42;6.90;;;3.27;;
8572;SDS011;4324;42.012;24.872;2022-10-31T02:28:33;12.40;;;4.40;;
8572;SDS011;4324;42.012;24.872;2022-10-31T02:31:16;7.33;;;3.07;;
8572;SDS011;4324;42.012;24.872;2022-10-31T02:33:52;19.83;;;4.63;;
8572;SDS011;4324;42.012;24.872;2022-10-31T02:36:23;18.43;;;3.83;;
8572;SDS011;4324;42.012;24.872;2022-10-31T02:38:56;42.40;;;6.17;;
8572;SDS011;4324;42.012;24.872;2022-10-31T02:41:35;8.10;;;2.90;;
8572;SDS011;4324;42.012;24.872;2022-10-31T02:44:11;7.10;;;2.80;;
8572;SDS011;4324;42.012;24.872;2022-10-31T02:46:49;6.03;;;3.20;;
8572;SDS011;4324;42.012;24.872;2022-10-31T02:49:22;5.13;;;2.50;;
8572;SDS011;4324;42.012;24.872;2022-10-31T02:51:53;3.13;;;2.20;;
8572;SDS011;4324;42.012;24.872;2022-10-31T02:54:21;4.43;;;2.77;;
8572;SDS011;4324;42.012;24.872;2022-10-31T02:56:50;7.43;;;2.70;;
8572;SDS011;4324;42.012;24.872;2022-10-31T02:59:24;5.93;;;2.70;;
8572;SDS011;4324;42.012;24.872;2022-10-31T03:05:08;5.20;;;3.00;;
8572;SDS011;4324;42.012;24.872;2022-10-31T03:07:42;3.97;;;2.77;;
8572;SDS011;4324;42.012;24.872;2022-10-31T03:10:20;3.97;;;2.33;;
8572;SDS011;4324;42.012;24.872;2022-10-31T03:12:58;4.63;;;2.77;;
8572;SDS011;4324;42.012;24.872;2022-10-31T03:15:33;3.47;;;2.50;;
8572;SDS011;4324;42.012;24.872;2022-10-31T03:18:04;8.40;;;2.90;;
8572;SDS011;4324;42.012;24.872;2022-10-31T03:20:36;3.20;;;2.50;;
8572;SDS011;4324;42.012;24.872;2022-10-31T03:23:08;6.20;;;3.73;;
8572;SDS011;4324;42.012;24.872;2022-10-31T03:25:38;4.07;;;2.70;;
8572;SDS011;4324;42.012;24.872;2022-10-31T03:28:07;4.03;;;2.93;;
8572;SDS011;4324;42.012;24.872;2022-10-31T03:30:38;6.00;;;3.43;;
8572;SDS011;4324;42.012;24.872;2022-10-31T03:33:10;5.97;;;2.83;;
8572;SDS011;4324;42.012;24.872;2022-10-31T03:35:41;7.47;;;2.70;;
8572;SDS011;4324;42.012;24.872;2022-10-31T03:38:11;2.97;;;2.50;;
8572;SDS011;4324;42.012;24.872;2022-10-31T03:40:40;3.40;;;2.60;;
8572;SDS011;4324;42.012;24.872;2022-10-31T03:43:10;3.50;;;2.87;;
8572;SDS011;4324;42.012;24.872;2022-10-31T03:45:43;3.90;;;2.67;;
8572;SDS011;4324;42.012;24.872;2022-10-31T03:48:14;5.90;;;2.43;;
8572;SDS011;4324;42.012;24.872;2022-10-31T03:50:46;6.73;;;3.17;;
8572;SDS011;4324;42.012;24.872;2022-10-31T03:53:20;6.07;;;2.47;;
8572;SDS011;4324;42.012;24.872;2022-10-31T03:55:53;5.47;;;3.17;;
8572;SDS011;4324;42.012;24.872;2022-10-31T03:58:27;4.33;;;2.70;;
8572;SDS011;4324;42.012;24.872;2022-10-31T04:00:58;4.37;;;3.80;;
8572;SDS011;4324;42.012;24.872;2022-10-31T04:03:30;5.67;;;2.93;;
8572;SDS011;4324;42.012;24.872;2022-10-31T04:05:59;5.47;;;2.40;;
8572;SDS011;4324;42.012;24.872;2022-10-31T04:08:31;6.63;;;3.17;;
8572;SDS011;4324;42.012;24.872;2022-10-31T04:11:02;5.23;;;2.70;;
8572;SDS011;4324;42.012;24.872;2022-10-31T04:13:31;5.57;;;2.57;;
8572;SDS011;4324;42.012;24.872;2022-10-31T04:16:03;3.77;;;2.63;;
8572;SDS011;4324;42.012;24.872;2022-10-31T04:18:32;3.77;;;3.40;;
8572;SDS011;4324;42.012;24.872;2022-10-31T04:21:00;5.83;;;3.37;;
8572;SDS011;4324;42.012;24.872;2022-10-31T04:23:27;3.20;;;2.33;;
8572;SDS011;4324;42.012;24.872;2022-10-31T04:25:55;6.80;;;3.43;;
8572;SDS011;4324;42.012;24.872;2022-10-31T04:28:22;5.10;;;2.50;;
8572;SDS011;4324;42.012;24.872;2022-10-31T04:30:49;3.83;;;2.73;;
8572;SDS011;4324;42.012;24.872;2022-10-31T04:33:16;5.50;;;2.67;;
8572;SDS011;4324;42.012;24.872;2022-10-31T04:35:45;4.97;;;2.40;;
8572;SDS011;4324;42.012;24.872;2022-10-31T04:38:12;4.63;;;2.67;;
8572;SDS011;4324;42.012;24.872;2022-10-31T04:40:39;4.87;;;3.47;;
8572;SDS011;4324;42.012;24.872;2022-10-31T04:43:06;4.70;;;3.23;;
8572;SDS011;4324;42.012;24.872;2022-10-31T04:45:32;4.30;;;2.63;;
8572;SDS011;4324;42.012;24.872;2022-10-31T04:48:03;4.57;;;3.80;;
8572;SDS011;4324;42.012;24.872;2022-10-31T04:50:30;5.57;;;2.63;;
8572;SDS011;4324;42.012;24.872;2022-10-31T04:52:59;6.17;;;4.03;;
8572;SDS011;4324;42.012;24.872;2022-10-31T04:55:26;4.63;;;2.87;;
8572;SDS011;4324;42.012;24.872;2022-10-31T04:57:52;5.57;;;3.00;;
8572;SDS011;4324;42.012;24.872;2022-10-31T05:00:20;3.83;;;2.80;;
8572;SDS011;4324;42.012;24.872;2022-10-31T05:02:48;7.13;;;3.37;;
8572;SDS011;4324;42.012;24.872;2022-10-31T05:05:17;3.77;;;2.70;;
8572;SDS011;4324;42.012;24.872;2022-10-31T05:07:46;6.00;;;3.13;;
8572;SDS011;4324;42.012;24.872;2022-10-31T05:10:17;7.20;;;3.30;;
8572;SDS011;4324;42.012;24.872;2022-10-31T05:12:45;5.50;;;2.97;;
8572;SDS011;4324;42.012;24.872;2022-10-31T05:15:13;5.23;;;2.70;;
8572;SDS011;4324;42.012;24.872;2022-10-31T05:17:40;4.63;;;2.80;;
8572;SDS011;4324;42.012;24.872;2022-10-31T05:20:08;5.40;;;2.90;;
8572;SDS011;4324;42.012;24.872;2022-10-31T05:22:35;5.03;;;3.47;;
8572;SDS011;4324;42.012;24.872;2022-10-31T05:25:02;8.07;;;3.20;;
8572;SDS011;4324;42.012;24.872;2022-10-31T05:27:31;4.83;;;3.33;;
8572;SDS011;4324;42.012;24.872;2022-10-31T05:29:57;9.30;;;4.43;;
8572;SDS011;4324;42.012;24.872;2022-10-31T05:32:24;6.87;;;3.00;;
8572;SDS011;4324;42.012;24.872;2022-10-31T05:34:51;8.93;;;4.67;;
8572;SDS011;4324;42.012;24.872;2022-10-31T05:37:18;5.80;;;4.57;;
8572;SDS011;4324;42.012;24.872;2022-10-31T05:39:45;7.53;;;5.47;;
8572;SDS011;4324;42.012;24.872;2022-10-31T05:42:12;10.67;;;6.63;;
8572;SDS011;4324;42.012;24.872;2022-10-31T05:44:44;5.03;;;3.00;;
8572;SDS011;4324;42.012;24.872;2022-10-31T05:47:11;9.30;;;5.63;;
8572;SDS011;4324;42.012;24.872;2022-10-31T05:49:39;9.43;;;5.83;;
8572;SDS011;4324;42.012;24.872;2022-10-31T05:52:06;4.50;;;3.30;;
8572;SDS011;4324;42.012;24.872;2022-10-31T05:54:33;4.80;;;2.57;;
8572;SDS011;4324;42.012;24.872;2022-10-31T05:57:00;4.33;;;2.83;;
8572;SDS011;4324;42.012;24.872;2022-10-31T05:59:27;3.67;;;2.87;;
8572;SDS011;4324;42.012;24.872;2022-10-31T06:01:55;4.97;;;3.07;;
8572;SDS011;4324;42.012;24.872;2022-10-31T06:04:22;16.43;;;4.70;;
8572;SDS011;4324;42.012;24.872;2022-10-31T06:06:49;9.67;;;4.40;;
8572;SDS011;4324;42.012;24.872;2022-10-31T06:09:16;6.97;;;2.90;;
8572;SDS011;4324;42.012;24.872;2022-10-31T06:11:44;9.07;;;3.53;;
8572;SDS011;4324;42.012;24.872;2022-10-31T06:14:12;6.03;;;3.40;;
8572;SDS011;4324;42.012;24.872;2022-10-31T06:16:39;8.37;;;4.33;;
8572;SDS011;4324;42.012;24.872;2022-10-31T06:19:22;7.73;;;3.73;;
8572;SDS011;4324;42.012;24.872;2022-10-31T06:21:52;4.63;;;3.13;;
8572;SDS011;4324;42.012;24.872;2022-10-31T06:24:19;4.17;;;3.00;;
8572;SDS011;4324;42.012;24.872;2022-10-31T06:26:49;7.20;;;3.87;;
8572;SDS011;4324;42.012;24.872;2022-10-31T06:29:18;6.97;;;3.90;;
8572;SDS011;4324;42.012;24.872;2022-10-31T06:31:50;11.47;;;5.63;;
8572;SDS011;4324;42.012;24.872;2022-10-31T06:34:33;9.80;;;4.37;;
8572;SDS011;4324;42.012;24.872;2022-10-31T06:37:17;5.40;;;3.43;;
8572;SDS011;4324;42.012;24.872;2022-10-31T06:39:53;6.10;;;3.30;;
8572;SDS011;4324;42.012;24.872;2022-10-31T06:42:42;5.10;;;2.70;;
8572;SDS011;4324;42.012;24.872;2022-10-31T06:45:29;9.87;;;4.47;;
8572;SDS011;4324;42.012;24.872;2022-10-31T06:48:13;7.00;;;4.10;;
8572;SDS011;4324;42.012;24.872;2022-10-31T06:50:43;7.43;;;4.07;;
8572;SDS011;4324;42.012;24.872;2022-10-31T06:53:10;5.93;;;4.07;;
8572;SDS011;4324;42.012;24.872;2022-10-31T06:55:59;6.67;;;3.50;;
8572;SDS011;4324;42.012;24.872;2022-10-31T06:58:26;9.40;;;4.20;;
8572;SDS011;4324;42.012;24.872;2022-10-31T07:00:52;5.80;;;3.73;;
8572;SDS011;4324;42.012;24.872;2022-10-31T07:03:19;6.53;;;4.03;;
8572;SDS011;4324;42.012;24.872;2022-10-31T07:05:48;4.23;;;3.23;;
8572;SDS011;4324;42.012;24.872;2022-10-31T07:08:31;9.60;;;4.10;;
8572;SDS011;4324;42.012;24.872;2022-10-31T07:10:58;5.93;;;4.00;;
8572;SDS011;4324;42.012;24.872;2022-10-31T07:13:25;6.77;;;4.30;;
8572;SDS011;4324;42.012;24.872;2022-10-31T07:15:52;6.30;;;4.00;;
8572;SDS011;4324;42.012;24.872;2022-10-31T07:18:26;5.43;;;3.67;;
8572;SDS011;4324;42.012;24.872;2022-10-31T07:20:57;25.90;;;6.10;;
8572;SDS011;4324;42.012;24.872;2022-10-31T07:23:24;11.67;;;4.23;;
8572;SDS011;4324;42.012;24.872;2022-10-31T07:25:58;7.30;;;3.97;;
8572;SDS011;4324;42.012;24.872;2022-10-31T07:28:26;4.87;;;3.87;;
8572;SDS011;4324;42.012;24.872;2022-10-31T07:30:56;6.03;;;3.70;;
8572;SDS011;4324;42.012;24.872;2022-10-31T07:33:31;4.13;;;3.17;;
8572;SDS011;4324;42.012;24.872;2022-10-31T07:35:59;5.53;;;3.50;;
8572;SDS011;4324;42.012;24.872;2022-10-31T07:38:27;7.50;;;4.53;;
8572;SDS011;4324;42.012;24.872;2022-10-31T07:40:54;16.10;;;12.23;;
8572;SDS011;4324;42.012;24.872;2022-10-31T07:43:21;8.07;;;5.27;;
8572;SDS011;4324;42.012;24.872;2022-10-31T07:45:51;6.93;;;4.43;;
8572;SDS011;4324;42.012;24.872;2022-10-31T07:48:23;3.97;;;3.33;;
8572;SDS011;4324;42.012;24.872;2022-10-31T07:50:50;8.10;;;4.03;;
8572;SDS011;4324;42.012;24.872;2022-10-31T07:53:18;7.77;;;6.03;;
8572;SDS011;4324;42.012;24.872;2022-10-31T07:55:45;6.73;;;5.07;;
8572;SDS011;4324;42.012;24.872;2022-10-31T07:58:13;6.37;;;3.93;;
8572;SDS011;4324;42.012;24.872;2022-10-31T08:00:41;6.30;;;3.80;;
8572;SDS011;4324;42.012;24.872;2022-10-31T08:03:17;5.43;;;4.33;;
8572;SDS011;4324;42.012;24.872;2022-10-31T08:05:44;8.73;;;5.03;;
8572;SDS011;4324;42.012;24.872;2022-10-31T08:08:12;7.77;;;5.27;;
8572;SDS011;4324;42.012;24.872;2022-10-31T08:10:42;7.70;;;5.20;;
8572;SDS011;4324;42.012;24.872;2022-10-31T08:13:09;5.67;;;5.00;;
8572;SDS011;4324;42.012;24.872;2022-10-31T08:15:38;7.37;;;5.33;;
8572;SDS011;4324;42.012;24.872;2022-10-31T08:18:06;7.57;;;4.93;;
8572;SDS011;4324;42.012;24.872;2022-10-31T08:20:38;7.50;;;4.20;;
8572;SDS011;4324;42.012;24.872;2022-10-31T08:23:05;7.93;;;4.00;;
8572;SDS011;4324;42.012;24.872;2022-10-31T08:25:32;6.53;;;3.87;;
8572;SDS011;4324;42.012;24.872;2022-10-31T08:28:03;7.27;;;4.00;;
8572;SDS011;4324;42.012;24.872;2022-10-31T08:30:31;4.87;;;4.00;;
8572;SDS011;4324;42.012;24.872;2022-10-31T08:33:00;6.57;;;4.07;;
8572;SDS011;4324;42.012;24.872;2022-10-31T08:35:29;5.27;;;3.90;;
8572;SDS011;4324;42.012;24.872;2022-10-31T08:37:56;8.37;;;3.87;;
8572;SDS011;4324;42.012;24.872;2022-10-31T08:40:23;7.40;;;4.70;;
8572;SDS011;4324;42.012;24.872;2022-10-31T08:42:55;8.63;;;4.37;;
8572;SDS011;4324;42.012;24.872;2022-10-31T08:45:25;6.40;;;4.33;;
8572;SDS011;4324;42.012;24.872;2022-10-31T08:47:58;5.23;;;3.60;;
8572;SDS011;4324;42.012;24.872;2022-10-31T08:50:25;6.40;;;3.83;;
8572;SDS011;4324;42.012;24.872;2022-10-31T08:52:53;6.30;;;4.67;;
8572;SDS011;4324;42.012;24.872;2022-10-31T08:55:26;6.23;;;4.17;;
8572;SDS011;4324;42.012;24.872;2022-10-31T08:57:54;5.40;;;3.90;;
8572;SDS011;4324;42.012;24.872;2022-10-31T09:00:27;6.70;;;4.20;;
8572;SDS011;4324;42.012;24.872;2022-10-31T09:03:11;6.43;;;3.97;;
8572;SDS011;4324;42.012;24.872;2022-10-31T09:05:48;7.23;;;4.00;;
8572;SDS011;4324;42.012;24.872;2022-10-31T09:08:16;7.40;;;4.40;;
8572;SDS011;4324;42.012;24.872;2022-10-31T09:10:43;8.47;;;4.90;;
8572;SDS011;4324;42.012;24.872;2022-10-31T09:13:11;7.23;;;4.87;;
8572;SDS011;4324;42.012;24.872;2022-10-31T09:15:41;6.10;;;3.77;;
8572;SDS011;4324;42.012;24.872;2022-10-31T09:18:10;8.87;;;3.83;;
8572;SDS011;4324;42.012;24.872;2022-10-31T09:20:38;8.37;;;5.13;;
8572;SDS011;4324;42.012;24.872;2022-10-31T09:23:10;7.73;;;5.03;;
8572;SDS011;4324;42.012;24.872;2022-10-31T09:25:39;8.40;;;5.47;;
8572;SDS011;4324;42.012;24.872;2022-10-31T09:28:07;10.37;;;5.70;;
8572;SDS011;4324;42.012;24.872;2022-10-31T09:30:36;9.93;;;5.67;;
8572;SDS011;4324;42.012;24.872;2022-10-31T09:33:09;9.20;;;5.87;;
8572;SDS011;4324;42.012;24.872;2022-10-31T09:35:37;8.17;;;4.13;;
8572;SDS011;4324;42.012;24.872;2022-10-31T09:38:06;6.10;;;4.00;;
8572;SDS011;4324;42.012;24.872;2022-10-31T09:40:36;6.13;;;3.77;;
8572;SDS011;4324;42.012;24.872;2022-10-31T09:43:07;7.50;;;4.50;;
8572;SDS011;4324;42.012;24.872;2022-10-31T09:45:42;7.23;;;4.23;;
8572;SDS011;4324;42.012;24.872;2022-10-31T09:51:24;8.63;;;4.90;;
8572;SDS011;4324;42.012;24.872;2022-10-31T09:53:58;4.33;;;3.93;;
8572;SDS011;4324;42.012;24.872;2022-10-31T09:56:28;4.80;;;3.60;;
8572;SDS011;4324;42.012;24.872;2022-10-31T09:58:58;6.90;;;3.77;;
8572;SDS011;4324;42.012;24.872;2022-10-31T10:01:39;7.60;;;3.97;;
8572;SDS011;4324;42.012;24.872;2022-10-31T10:04:19;9.27;;;4.43;;
8572;SDS011;4324;42.012;24.872;2022-10-31T10:07:02;5.43;;;3.60;;
8572;SDS011;4324;42.012;24.872;2022-10-31T10:09:38;6.27;;;3.90;;
8572;SDS011;4324;42.012;24.872;2022-10-31T10:12:08;5.33;;;3.80;;
8572;SDS011;4324;42.012;24.872;2022-10-31T10:14:51;7.97;;;4.00;;
8572;SDS011;4324;42.012;24.872;2022-10-31T10:17:35;4.23;;;3.80;;
8572;SDS011;4324;42.012;24.872;2022-10-31T10:20:14;4.90;;;3.53;;
8572;SDS011;4324;42.012;24.872;2022-10-31T10:22:52;5.87;;;3.73;;
8572;SDS011;4324;42.012;24.872;2022-10-31T10:25:31;4.83;;;3.33;;
8572;SDS011;4324;42.012;24.872;2022-10-31T10:28:08;5.37;;;3.70;;
8572;SDS011;4324;42.012;24.872;2022-10-31T10:30:44;5.17;;;3.17;;
8572;SDS011;4324;42.012;24.872;2022-10-31T10:33:16;7.37;;;5.33;;
8572;SDS011;4324;42.012;24.872;2022-10-31T10:35:49;5.40;;;3.90;;
8572;SDS011;4324;42.012;24.872;2022-10-31T10:38:21;8.40;;;4.53;;
8572;SDS011;4324;42.012;24.872;2022-10-31T10:40:54;6.30;;;4.17;;
8572;SDS011;4324;42.012;24.872;2022-10-31T10:43:23;6.10;;;3.87;;
8572;SDS011;4324;42.012;24.872;2022-10-31T10:45:55;5.90;;;3.70;;
8572;SDS011;4324;42.012;24.872;2022-10-31T10:48:49;5.63;;;4.03;;
8572;SDS011;4324;42.012;24.872;2022-10-31T10:51:27;5.70;;;3.70;;
8572;SDS011;4324;42.012;24.872;2022-10-31T10:54:22;7.07;;;4.47;;
8572;SDS011;4324;42.012;24.872;2022-10-31T10:57:05;7.93;;;3.83;;
8572;SDS011;4324;42.012;24.872;2022-10-31T10:59:40;6.50;;;3.50;;
8572;SDS011;4324;42.012;24.872;2022-10-31T11:02:16;10.63;;;7.63;;
8572;SDS011;4324;42.012;24.872;2022-10-31T11:04:49;7.90;;;3.90;;
8572;SDS011;4324;42.012;24.872;2022-10-31T11:07:19;5.67;;;4.13;;
8572;SDS011;4324;42.012;24.872;2022-10-31T11:09:47;6.47;;;3.40;;
8572;SDS011;4324;42.012;24.872;2022-10-31T11:12:20;6.63;;;3.93;;
8572;SDS011;4324;42.012;24.872;2022-10-31T11:14:58;7.60;;;4.07;;
8572;SDS011;4324;42.012;24.872;2022-10-31T11:17:39;7.80;;;3.93;;
8572;SDS011;4324;42.012;24.872;2022-10-31T11:20:22;6.30;;;3.30;;
8572;SDS011;4324;42.012;24.872;2022-10-31T11:23:02;5.23;;;3.40;;
8572;SDS011;4324;42.012;24.872;2022-10-31T11:25:31;7.77;;;3.17;;
8572;SDS011;4324;42.012;24.872;2022-10-31T11:27:58;4.03;;;2.73;;
8572;SDS011;4324;42.012;24.872;2022-10-31T11:30:26;5.60;;;3.50;;
8572;SDS011;4324;42.012;24.872;2022-10-31T11:32:57;4.03;;;3.07;;
8572;SDS011;4324;42.012;24.872;2022-10-31T11:35:29;7.67;;;3.10;;
8572;SDS011;4324;42.012;24.872;2022-10-31T11:37:56;4.70;;;3.10;;
8572;SDS011;4324;42.012;24.872;2022-10-31T11:40:28;6.03;;;3.97;;
8572;SDS011;4324;42.012;24.872;2022-10-31T11:42:55;4.43;;;3.27;;
8572;SDS011;4324;42.012;24.872;2022-10-31T11:45:29;4.20;;;2.60;;
8572;SDS011;4324;42.012;24.872;2022-10-31T11:48:02;7.93;;;3.00;;
8572;SDS011;4324;42.012;24.872;2022-10-31T11:50:42;8.73;;;4.40;;
8572;SDS011;4324;42.012;24.872;2022-10-31T11:53:16;9.03;;;4.63;;
8572;SDS011;4324;42.012;24.872;2022-10-31T11:55:46;6.27;;;3.17;;
8572;SDS011;4324;42.012;24.872;2022-10-31T11:58:27;8.07;;;4.57;;
8572;SDS011;4324;42.012;24.872;2022-10-31T12:00:55;10.30;;;4.03;;
8572;SDS011;4324;42.012;24.872;2022-10-31T12:03:27;6.97;;;3.83;;
8572;SDS011;4324;42.012;24.872;2022-10-31T12:06:15;6.03;;;3.23;;
8572;SDS011;4324;42.012;24.872;2022-10-31T12:08:47;4.73;;;2.77;;
8572;SDS011;4324;42.012;24.872;2022-10-31T12:11:21;6.03;;;3.30;;
8572;SDS011;4324;42.012;24.872;2022-10-31T12:14:05;5.37;;;3.80;;
8572;SDS011;4324;42.012;24.872;2022-10-31T12:16:42;4.93;;;2.90;;
8572;SDS011;4324;42.012;24.872;2022-10-31T12:19:17;4.77;;;2.93;;
8572;SDS011;4324;42.012;24.872;2022-10-31T12:21:57;7.30;;;2.90;;
8572;SDS011;4324;42.012;24.872;2022-10-31T12:24:35;8.17;;;3.40;;
8572;SDS011;4324;42.012;24.872;2022-10-31T12:27:17;5.73;;;3.17;;
8572;SDS011;4324;42.012;24.872;2022-10-31T12:30:04;4.30;;;3.20;;
8572;SDS011;4324;42.012;24.872;2022-10-31T12:32:49;5.33;;;3.10;;
8572;SDS011;4324;42.012;24.872;2022-10-31T12:35:27;5.47;;;3.20;;
8572;SDS011;4324;42.012;24.872;2022-10-31T12:38:07;6.23;;;3.50;;
8572;SDS011;4324;42.012;24.872;2022-10-31T12:40:59;4.23;;;3.40;;
8572;SDS011;4324;42.012;24.872;2022-10-31T12:43:37;4.90;;;2.77;;
8572;SDS011;4324;42.012;24.872;2022-10-31T12:46:13;6.90;;;4.00;;
8572;SDS011;4324;42.012;24.872;2022-10-31T12:48:55;6.43;;;4.23;;
8572;SDS011;4324;42.012;24.872;2022-10-31T12:51:45;5.77;;;3.40;;
8572;SDS011;4324;42.012;24.872;2022-10-31T12:57:16;6.67;;;2.73;;
8572;SDS011;4324;42.012;24.872;2022-10-31T12:59:52;5.37;;;3.40;;
8572;SDS011;4324;42.012;24.872;2022-10-31T13:02:25;6.27;;;3.10;;
8572;SDS011;4324;42.012;24.872;2022-10-31T13:04:56;6.33;;;3.57;;
8572;SDS011;4324;42.012;24.872;2022-10-31T13:07:30;5.67;;;3.60;;
8572;SDS011;4324;42.012;24.872;2022-10-31T13:10:01;6.40;;;3.20;;
8572;SDS011;4324;42.012;24.872;2022-10-31T13:12:32;6.33;;;3.00;;
8572;SDS011;4324;42.012;24.872;2022-10-31T13:15:13;6.70;;;3.70;;
8572;SDS011;4324;42.012;24.872;2022-10-31T13:17:59;4.80;;;3.00;;
8572;SDS011;4324;42.012;24.872;2022-10-31T13:20:33;7.93;;;3.60;;
8572;SDS011;4324;42.012;24.872;2022-10-31T13:23:07;9.13;;;3.53;;
8572;SDS011;4324;42.012;24.872;2022-10-31T13:25:42;12.30;;;4.20;;
8572;SDS011;4324;42.012;24.872;2022-10-31T13:28:21;3.93;;;3.17;;
8572;SDS011;4324;42.012;24.872;2022-10-31T13:31:14;7.93;;;3.60;;
8572;SDS011;4324;42.012;24.872;2022-10-31T13:36:32;7.40;;;3.53;;
8572;SDS011;4324;42.012;24.872;2022-10-31T13:39:21;7.93;;;3.33;;
8572;SDS011;4324;42.012;24.872;2022-10-31T13:42:01;5.27;;;2.93;;
8572;SDS011;4324;42.012;24.872;2022-10-31T13:44:35;5.73;;;3.20;;
8572;SDS011;4324;42.012;24.872;2022-10-31T13:50:03;7.53;;;3.47;;
8572;SDS011;4324;42.012;24.872;2022-10-31T13:52:44;5.67;;;3.40;;
8572;SDS011;4324;42.012;24.872;2022-10-31T14:01:13;6.73;;;3.20;;
8572;SDS011;4324;42.012;24.872;2022-10-31T14:03:47;6.40;;;3.23;;
8572;SDS011;4324;42.012;24.872;2022-10-31T14:06:34;9.40;;;4.10;;
8572;SDS011;4324;42.012;24.872;2022-10-31T14:09:02;9.80;;;4.30;;
8572;SDS011;4324;42.012;24.872;2022-10-31T14:11:32;7.77;;;4.03;;
8572;SDS011;4324;42.012;24.872;2022-10-31T14:13:59;5.43;;;4.10;;
8572;SDS011;4324;42.012;24.872;2022-10-31T14:16:27;7.73;;;4.87;;
8572;SDS011;4324;42.012;24.872;2022-10-31T14:18:59;11.13;;;4.43;;
8572;SDS011;4324;42.012;24.872;2022-10-31T14:21:31;9.83;;;5.47;;
8572;SDS011;4324;42.012;24.872;2022-10-31T14:24:12;12.23;;;4.90;;
8572;SDS011;4324;42.012;24.872;2022-10-31T14:26:50;8.47;;;4.10;;
8572;SDS011;4324;42.012;24.872;2022-10-31T14:29:22;8.17;;;4.13;;
8572;SDS011;4324;42.012;24.872;2022-10-31T14:31:57;6.60;;;3.77;;
8572;SDS011;4324;42.012;24.872;2022-10-31T14:34:29;6.17;;;3.90;;
8572;SDS011;4324;42.012;24.872;2022-10-31T14:40:10;5.90;;;5.23;;
8572;SDS011;4324;42.012;24.872;2022-10-31T14:42:53;13.23;;;6.43;;
8572;SDS011;4324;42.012;24.872;2022-10-31T14:45:31;16.43;;;9.50;;
8572;SDS011;4324;42.012;24.872;2022-10-31T14:48:17;12.67;;;8.50;;
8572;SDS011;4324;42.012;24.872;2022-10-31T14:51:01;13.03;;;9.30;;
8572;SDS011;4324;42.012;24.872;2022-10-31T14:53:35;12.10;;;5.03;;
8572;SDS011;4324;42.012;24.872;2022-10-31T14:56:10;9.33;;;5.23;;
8572;SDS011;4324;42.012;24.872;2022-10-31T14:58:39;9.93;;;4.80;;
8572;SDS011;4324;42.012;24.872;2022-10-31T15:01:15;7.47;;;5.10;;
8572;SDS011;4324;42.012;24.872;2022-10-31T15:03:47;7.60;;;4.77;;
8572;SDS011;4324;42.012;24.872;2022-10-31T15:06:17;12.73;;;5.00;;
8572;SDS011;4324;42.012;24.872;2022-10-31T15:08:48;6.93;;;5.33;;
8572;SDS011;4324;42.012;24.872;2022-10-31T15:11:16;13.80;;;6.53;;
8572;SDS011;4324;42.012;24.872;2022-10-31T15:13:45;9.87;;;7.70;;
8572;SDS011;4324;42.012;24.872;2022-10-31T15:16:14;9.27;;;5.90;;
8572;SDS011;4324;42.012;24.872;2022-10-31T15:18:47;9.23;;;7.13;;
8572;SDS011;4324;42.012;24.872;2022-10-31T15:21:19;10.20;;;7.00;;
8572;SDS011;4324;42.012;24.872;2022-10-31T15:23:48;8.63;;;6.73;;
8572;SDS011;4324;42.012;24.872;2022-10-31T15:26:19;8.83;;;5.13;;
8572;SDS011;4324;42.012;24.872;2022-10-31T15:28:57;11.43;;;5.90;;
8572;SDS011;4324;42.012;24.872;2022-10-31T15:31:27;6.27;;;4.77;;
8572;SDS011;4324;42.012;24.872;2022-10-31T15:33:58;11.33;;;7.97;;
8572;SDS011;4324;42.012;24.872;2022-10-31T15:36:30;11.57;;;7.40;;
8572;SDS011;4324;42.012;24.872;2022-10-31T15:38:58;9.40;;;7.90;;
8572;SDS011;4324;42.012;24.872;2022-10-31T15:41:27;10.50;;;4.97;;
8572;SDS011;4324;42.012;24.872;2022-10-31T15:43:58;11.03;;;5.90;;
8572;SDS011;4324;42.012;24.872;2022-10-31T15:46:28;9.57;;;4.57;;
8572;SDS011;4324;42.012;24.872;2022-10-31T15:48:56;7.90;;;4.63;;
8572;SDS011;4324;42.012;24.872;2022-10-31T15:51:28;9.53;;;4.40;;
8572;SDS011;4324;42.012;24.872;2022-10-31T15:53:58;8.70;;;4.30;;